Time;durP1;ratioP1;P1;durP2;ratioP2;P2;SDS_P1;SDS_P2;PMS_P1;PMS_P2;Temp;Humidity;BMP_temperature;BMP_pressure;BME280_temperature;BME280_humidity;BME280_pressure;Samples;Min_cycle;Max_cycle;Signal;HPM_P1;HPM_P2
2022/12/16 00:00:28;;;;;;;;;29.50;26.00;;;;;2.42;57.52;100133.06;5016201;28;45567;-61
2022/12/16 00:02:54;;;;;;;;;34.00;28.50;;;;;2.40;57.66;100121.84;5031559;28;45654;-61
2022/12/16 00:05:20;;;;;;;;;33.50;29.25;;;;;2.42;57.19;100126.16;5034984;28;45468;-61
2022/12/16 00:07:46;;;;;;;;;28.00;25.00;;;;;2.37;57.66;100124.47;5035142;28;45531;-61
2022/12/16 00:10:12;;;;;;;;;38.25;33.25;;;;;2.34;57.40;100135.75;5035112;28;45552;-61
2022/12/16 00:12:37;;;;;;;;;31.75;27.75;;;;;2.36;57.98;100139.16;5034911;28;45460;-60
2022/12/16 00:15:03;;;;;;;;;34.25;32.75;;;;;2.35;57.46;100132.25;5035119;28;45342;-59
2022/12/16 00:17:28;;;;;;;;;32.50;29.00;;;;;2.27;57.63;100130.63;5035016;28;45479;-61
2022/12/16 00:19:53;;;;;;;;;31.00;27.75;;;;;2.30;58.01;100144.41;5035056;28;45555;-62
2022/12/16 00:22:19;;;;;;;;;30.50;30.50;;;;;2.31;58.05;100153.03;5034565;28;46587;-62
2022/12/16 00:24:44;;;;;;;;;32.00;28.75;;;;;2.31;57.98;100153.03;5034686;28;45452;-62
2022/12/16 00:27:10;;;;;;;;;33.00;32.75;;;;;2.31;57.54;100159.13;5035060;28;45238;-59
2022/12/16 00:29:35;;;;;;;;;36.00;33.00;;;;;2.35;57.66;100165.13;5033563;28;45651;-62
2022/12/16 00:32:01;;;;;;;;;31.75;25.00;;;;;2.33;57.79;100165.13;5035251;28;45463;-58
2022/12/16 00:34:27;;;;;;;;;33.75;28.75;;;;;2.30;58.88;100161.72;5034683;28;45536;-60
2022/12/16 00:36:53;;;;;;;;;33.75;27.75;;;;;2.28;58.33;100155.66;5022095;28;45431;-61
2022/12/16 00:39:18;;;;;;;;;30.75;30.25;;;;;2.32;57.90;100166.03;5031912;28;45660;-63
2022/12/16 00:41:43;;;;;;;;;39.25;33.75;;;;;2.34;58.20;100172.06;5026739;28;46577;-59
2022/12/16 00:44:09;;;;;;;;;37.25;32.25;;;;;2.34;57.72;100172.06;5034365;28;45458;-61
2022/12/16 00:46:34;;;;;;;;;32.75;30.00;;;;;2.37;58.19;100169.44;5034630;28;45497;-64
2022/12/16 00:48:59;;;;;;;;;38.50;38.25;;;;;2.35;57.62;100162.53;5034312;28;45519;-62
2022/12/16 00:51:25;;;;;;;;;37.75;33.50;;;;;2.35;58.30;100168.59;5034474;28;46245;-59
2022/12/16 00:53:50;;;;;;;;;39.50;37.50;;;;;2.34;58.23;100164.28;5034569;28;45560;-62
2022/12/16 00:56:19;;;;;;;;;33.00;31.50;;;;;2.28;58.92;100172.09;5034533;28;45520;-61
2022/12/16 00:58:44;;;;;;;;;44.25;39.75;;;;;2.28;58.74;100168.66;5026576;28;45594;-60
2022/12/16 01:01:10;;;;;;;;;36.75;33.75;;;;;2.25;58.77;100169.53;5030685;28;46308;-61
2022/12/16 01:03:37;;;;;;;;;48.00;38.25;;;;;2.25;58.78;100172.13;5034422;28;45372;-62
2022/12/16 01:06:11;;;;;;;;;43.50;38.50;;;;;2.31;58.80;100184.19;5034360;28;45312;-61
2022/12/16 01:08:36;;;;;;;;;44.75;38.50;;;;;2.28;59.14;100172.09;5034620;28;45522;-60
2022/12/16 01:11:02;;;;;;;;;42.75;39.00;;;;;2.35;58.98;100183.31;5033625;28;48303;-62
2022/12/16 01:13:28;;;;;;;;;45.25;39.25;;;;;2.32;59.66;100193.72;5037501;28;45389;-61
2022/12/16 01:15:53;;;;;;;;;41.50;38.50;;;;;2.29;59.38;100186.81;5037765;28;45870;-63
2022/12/16 01:18:19;;;;;;;;;43.25;40.00;;;;;2.30;59.46;100191.13;5036505;28;45567;-61
2022/12/16 01:20:45;;;;;;;;;39.50;38.50;;;;;2.25;59.61;100186.84;5036031;28;46537;-61
2022/12/16 01:23:10;;;;;;;;;37.75;35.50;;;;;2.29;59.62;100202.38;5037389;28;45403;-62
2022/12/16 01:25:35;;;;;;;;;38.75;37.75;;;;;2.27;59.40;100198.94;5028838;28;45426;-63
2022/12/16 01:28:01;;;;;;;;;42.75;37.00;;;;;2.28;59.79;100207.56;5020284;28;45447;-61
2022/12/16 01:30:26;;;;;;;;;38.75;38.50;;;;;2.27;59.73;100208.44;5024537;28;45386;-60
2022/12/16 01:32:51;;;;;;;;;44.75;41.25;;;;;2.25;59.23;100217.97;5036656;28;45370;-60
2022/12/16 01:35:17;;;;;;;;;47.50;40.25;;;;;2.26;59.39;100214.50;5024097;28;45234;-62
2022/12/16 01:37:43;;;;;;;;;41.25;40.25;;;;;2.22;60.41;100222.31;5036051;28;45443;-60
2022/12/16 01:40:17;;;;;;;;;51.00;43.50;;;;;2.15;59.87;100211.97;5037038;28;46616;-62
2022/12/16 01:42:43;;;;;;;;;43.25;40.25;;;;;2.23;59.91;100228.38;5025708;28;45499;-62
2022/12/16 01:45:41;;;;;;;;;34.25;34.25;;;;;2.26;60.02;100238.72;5034953;28;45514;-61
2022/12/16 01:48:34;;;;;;;;;19.50;17.25;;;;;2.20;60.21;100233.56;5003240;28;45477;-58
2022/12/16 01:51:09;;;;;;;;;44.00;40.00;;;;;2.20;60.79;100231.84;5026802;28;45537;-64
2022/12/16 01:53:37;;;;;;;;;44.75;39.75;;;;;2.26;60.64;100254.28;5037032;28;45316;-60
2022/12/16 01:56:03;;;;;;;;;47.50;40.75;;;;;2.26;60.68;100250.81;5037229;28;45510;-60
2022/12/16 01:58:32;;;;;;;;;45.25;41.50;;;;;2.30;60.60;100255.97;5028995;28;45461;-61
2022/12/16 02:00:58;;;;;;;;;40.25;39.25;;;;;2.31;60.76;100260.31;5037009;28;46561;-62
2022/12/16 02:03:25;;;;;;;;;42.25;38.50;;;;;2.26;60.92;100256.91;5036840;28;45546;-62
2022/12/16 02:05:51;;;;;;;;;41.50;39.25;;;;;2.33;60.73;100262.88;5037018;28;45511;-64
2022/12/16 02:08:19;;;;;;;;;44.75;37.50;;;;;2.30;60.06;100263.78;5037044;28;45463;-59
2022/12/16 02:10:59;;;;;;;;;48.50;42.00;;;;;2.31;60.79;100273.28;5036640;28;45520;-61
2022/12/16 02:13:49;;;;;;;;;46.00;42.50;;;;;2.29;60.44;100272.44;5036787;28;45433;-64
2022/12/16 02:16:22;;;;;;;;;39.75;38.00;;;;;2.28;60.97;100278.47;5036911;28;45439;-64
2022/12/16 02:19:12;;;;;;;;;42.00;40.50;;;;;2.28;60.50;100281.06;5036481;28;45499;-62
2022/12/16 02:22:07;;;;;;;;;44.25;39.00;;;;;2.29;60.79;100275.03;5026210;28;45405;-60
2022/12/16 02:25:18;;;;;;;;;42.00;36.00;;;;;2.29;60.91;100271.59;5035779;28;45408;-63
2022/12/16 02:27:57;;;;;;;;;48.00;41.50;;;;;2.31;60.75;100270.69;5021190;28;45509;-62
2022/12/16 02:30:31;;;;;;;;;47.50;40.25;;;;;2.31;61.07;100273.28;5036758;28;45491;-61
2022/12/16 02:33:10;;;;;;;;;44.25;39.25;;;;;2.31;61.16;100278.47;5035397;28;46325;-59
2022/12/16 02:35:50;;;;;;;;;43.50;41.50;;;;;2.29;60.93;100279.38;5036475;28;45411;-60
2022/12/16 02:38:48;;;;;;;;;50.75;43.00;;;;;2.31;61.21;100278.47;5036514;28;45445;-59
2022/12/16 02:41:31;;;;;;;;;44.00;38.75;;;;;2.30;60.93;100270.69;5036249;28;45486;-60
2022/12/16 02:44:08;;;;;;;;;46.00;38.50;;;;;2.33;61.14;100278.44;5034822;28;47759;-60
2022/12/16 02:46:42;;;;;;;;;46.00;41.25;;;;;2.33;60.82;100268.94;5034496;28;45461;-63
2022/12/16 02:49:13;;;;;;;;;44.25;40.75;;;;;2.33;61.13;100273.25;5036308;28;45459;-63
2022/12/16 02:51:38;;;;;;;;;38.75;34.50;;;;;2.27;60.87;100265.53;5036202;28;45428;-63
2022/12/16 02:54:07;;;;;;;;;42.00;36.75;;;;;2.36;60.71;100274.09;5036139;28;46218;-61
2022/12/16 02:56:51;;;;;;;;;36.00;33.50;;;;;2.37;60.89;100281.03;5035848;28;45532;-62
2022/12/16 02:59:43;;;;;;;;;39.25;37.00;;;;;2.37;61.13;100278.44;5036079;28;45456;-63
2022/12/16 03:02:17;;;;;;;;;51.75;42.25;;;;;2.36;60.72;100284.47;5036182;28;45381;-60
2022/12/16 03:04:50;;;;;;;;;43.50;41.75;;;;;2.33;60.42;100276.72;5035766;28;45497;-59
2022/12/16 03:07:20;;;;;;;;;46.50;42.25;;;;;2.34;60.59;100286.25;5035843;28;45405;-58
2022/12/16 03:09:47;;;;;;;;;55.75;46.25;;;;;2.24;60.38;100263.81;5036137;28;45447;-62
2022/12/16 03:12:16;;;;;;;;;53.00;44.25;;;;;2.31;60.80;100286.28;5036020;28;45401;-60
2022/12/16 03:14:45;;;;;;;;;49.25;41.00;;;;;2.31;60.61;100282.78;5035549;28;45472;-61
2022/12/16 03:17:13;;;;;;;;;44.75;39.25;;;;;2.32;60.33;100292.31;5034057;28;45344;-59
2022/12/16 03:19:40;;;;;;;;;57.50;44.75;;;;;2.31;60.50;100293.16;5035887;28;45361;-62
2022/12/16 03:22:17;;;;;;;;;51.00;42.75;;;;;2.25;60.58;100293.22;5035563;28;45322;-64
2022/12/16 03:24:42;;;;;;;;;50.50;44.75;;;;;2.23;60.52;100295.84;5035517;28;46182;-59
2022/12/16 03:27:20;;;;;;;;;51.25;43.25;;;;;2.23;60.57;100301.03;5035627;28;45455;-61
2022/12/16 03:30:05;;;;;;;;;51.50;43.75;;;;;2.22;60.57;100296.69;5035877;28;45530;-60
2022/12/16 03:32:44;;;;;;;;;51.50;43.50;;;;;2.20;60.77;100293.22;5036402;28;45521;-59
2022/12/16 03:35:23;;;;;;;;;55.00;46.25;;;;;2.23;60.50;100298.44;5022212;28;46341;-62
2022/12/16 03:37:54;;;;;;;;;50.25;42.25;;;;;2.26;61.10;100311.38;5035371;28;45534;-62
2022/12/16 03:40:21;;;;;;;;;53.50;43.50;;;;;2.23;60.60;100308.81;5035751;28;45395;-61
2022/12/16 03:42:48;;;;;;;;;49.00;45.00;;;;;2.19;60.98;100310.53;5035389;28;45488;-62
2022/12/16 03:45:18;;;;;;;;;55.50;44.00;;;;;2.22;60.31;100315.69;5035287;28;45526;-62
2022/12/16 03:47:49;;;;;;;;;56.25;47.00;;;;;2.22;60.50;100312.25;5028525;28;45392;-60
2022/12/16 03:50:16;;;;;;;;;51.75;44.00;;;;;2.20;60.98;100319.19;5035313;28;45559;-60
2022/12/16 03:52:41;;;;;;;;;50.00;45.75;;;;;2.19;60.74;100322.66;5035316;28;45545;-60
2022/12/16 03:55:07;;;;;;;;;54.75;44.50;;;;;2.16;61.11;100317.50;5034940;28;46689;-59
2022/12/16 03:57:32;;;;;;;;;56.00;47.00;;;;;2.17;61.33;100320.06;5035291;28;45468;-61
2022/12/16 03:59:57;;;;;;;;;50.50;46.00;;;;;2.15;60.95;100323.53;5033710;28;45414;-63
2022/12/16 04:02:23;;;;;;;;;54.75;43.75;;;;;2.11;61.43;100321.84;5035380;28;45602;-59
2022/12/16 04:04:48;;;;;;;;;58.75;47.75;;;;;2.11;60.74;100329.63;5033688;28;49659;-63
2022/12/16 04:07:19;;;;;;;;;53.25;46.75;;;;;2.05;61.24;100316.69;5034818;28;45519;-62
2022/12/16 04:09:45;;;;;;;;;59.25;48.25;;;;;2.13;61.13;100333.06;5035364;28;45470;-62
2022/12/16 04:25:57;;;;;;;;;48.50;44.50;;;;;1.98;62.01;100342.63;5034588;28;45770;-62
2022/12/16 04:28:22;;;;;;;;;56.50;46.25;;;;;1.94;61.87;100343.53;5034787;28;45419;-60
2022/12/16 04:30:48;;;;;;;;;48.75;43.25;;;;;1.92;61.60;100350.44;5034733;28;45441;-61
